sensor_id;sensor_type;location;lat;lon;timestamp;P1;durP1;ratioP1;P2;durP2;ratioP2
1601;SDS011;794;48.592;9.634;2024-02-26T00:00:11;3.40;;;2.60;;
1601;SDS011;794;48.592;9.634;2024-02-26T00:02:39;2.00;;;1.90;;
1601;SDS011;794;48.592;9.634;2024-02-26T00:05:07;3.00;;;2.80;;
1601;SDS011;794;48.592;9.634;2024-02-26T00:07:34;3.33;;;3.00;;
1601;SDS011;794;48.592;9.634;2024-02-26T00:10:01;3.00;;;2.80;;
1601;SDS011;794;48.592;9.634;2024-02-26T00:12:30;3.07;;;2.80;;
1601;SDS011;794;48.592;9.634;2024-02-26T00:14:57;3.80;;;3.40;;
1601;SDS011;794;48.592;9.634;2024-02-26T00:17:24;3.40;;;2.97;;
1601;SDS011;794;48.592;9.634;2024-02-26T00:19:51;2.50;;;2.13;;
1601;SDS011;794;48.592;9.634;2024-02-26T00:22:18;1.70;;;1.60;;
1601;SDS011;794;48.592;9.634;2024-02-26T00:24:45;2.67;;;1.97;;
1601;SDS011;794;48.592;9.634;2024-02-26T00:27:12;2.20;;;2.00;;
1601;SDS011;794;48.592;9.634;2024-02-26T00:29:40;2.20;;;2.03;;
1601;SDS011;794;48.592;9.634;2024-02-26T00:32:07;2.43;;;1.80;;
1601;SDS011;794;48.592;9.634;2024-02-26T00:34:34;2.20;;;2.00;;
1601;SDS011;794;48.592;9.634;2024-02-26T00:37:01;1.70;;;1.60;;
1601;SDS011;794;48.592;9.634;2024-02-26T00:39:28;2.57;;;2.47;;
1601;SDS011;794;48.592;9.634;2024-02-26T00:41:55;2.63;;;2.00;;
1601;SDS011;794;48.592;9.634;2024-02-26T00:44:23;2.23;;;2.07;;
1601;SDS011;794;48.592;9.634;2024-02-26T00:46:51;1.70;;;1.60;;
1601;SDS011;794;48.592;9.634;2024-02-26T00:49:18;2.20;;;2.00;;
1601;SDS011;794;48.592;9.634;2024-02-26T00:51:45;1.90;;;1.70;;
1601;SDS011;794;48.592;9.634;2024-02-26T00:54:12;2.87;;;2.10;;
1601;SDS011;794;48.592;9.634;2024-02-26T00:56:39;2.70;;;2.50;;
1601;SDS011;794;48.592;9.634;2024-02-26T00:59:06;3.33;;;1.90;;
1601;SDS011;794;48.592;9.634;2024-02-26T01:01:32;2.23;;;1.80;;
1601;SDS011;794;48.592;9.634;2024-02-26T01:04:01;7.87;;;2.30;;
1601;SDS011;794;48.592;9.634;2024-02-26T01:06:28;1.93;;;1.83;;
1601;SDS011;794;48.592;9.634;2024-02-26T01:08:55;3.20;;;2.10;;
1601;SDS011;794;48.592;9.634;2024-02-26T01:11:22;3.30;;;2.70;;
1601;SDS011;794;48.592;9.634;2024-02-26T01:13:49;6.27;;;2.77;;
1601;SDS011;794;48.592;9.634;2024-02-26T01:16:21;2.23;;;2.00;;
1601;SDS011;794;48.592;9.634;2024-02-26T01:18:48;2.40;;;2.00;;
1601;SDS011;794;48.592;9.634;2024-02-26T01:21:16;3.13;;;2.47;;
1601;SDS011;794;48.592;9.634;2024-02-26T01:23:43;2.90;;;2.43;;
1601;SDS011;794;48.592;9.634;2024-02-26T01:26:10;4.53;;;2.90;;
1601;SDS011;794;48.592;9.634;2024-02-26T01:28:37;3.20;;;2.50;;
1601;SDS011;794;48.592;9.634;2024-02-26T01:31:04;2.37;;;2.17;;
1601;SDS011;794;48.592;9.634;2024-02-26T01:33:33;2.77;;;2.13;;
1601;SDS011;794;48.592;9.634;2024-02-26T01:36:00;3.00;;;2.60;;
1601;SDS011;794;48.592;9.634;2024-02-26T01:38:29;2.60;;;2.40;;
1601;SDS011;794;48.592;9.634;2024-02-26T01:40:55;3.67;;;2.80;;
1601;SDS011;794;48.592;9.634;2024-02-26T01:43:22;3.37;;;2.50;;
1601;SDS011;794;48.592;9.634;2024-02-26T01:45:49;3.03;;;2.73;;
1601;SDS011;794;48.592;9.634;2024-02-26T01:48:16;2.70;;;2.43;;
1601;SDS011;794;48.592;9.634;2024-02-26T01:50:43;3.10;;;2.80;;
1601;SDS011;794;48.592;9.634;2024-02-26T01:53:10;2.60;;;2.40;;
1601;SDS011;794;48.592;9.634;2024-02-26T01:55:39;5.20;;;2.73;;
1601;SDS011;794;48.592;9.634;2024-02-26T01:58:06;3.73;;;2.43;;
1601;SDS011;794;48.592;9.634;2024-02-26T02:00:33;2.77;;;2.57;;
1601;SDS011;794;48.592;9.634;2024-02-26T02:03:01;2.73;;;2.50;;
1601;SDS011;794;48.592;9.634;2024-02-26T02:05:28;2.93;;;2.63;;
1601;SDS011;794;48.592;9.634;2024-02-26T02:07:56;3.20;;;2.90;;
1601;SDS011;794;48.592;9.634;2024-02-26T02:10:23;2.57;;;2.37;;
1601;SDS011;794;48.592;9.634;2024-02-26T02:12:54;3.20;;;2.83;;
1601;SDS011;794;48.592;9.634;2024-02-26T02:15:21;2.70;;;2.50;;
1601;SDS011;794;48.592;9.634;2024-02-26T02:17:48;2.77;;;2.47;;
1601;SDS011;794;48.592;9.634;2024-02-26T02:20:15;2.87;;;2.33;;
1601;SDS011;794;48.592;9.634;2024-02-26T02:22:44;3.03;;;2.60;;
1601;SDS011;794;48.592;9.634;2024-02-26T02:25:12;3.33;;;3.07;;
1601;SDS011;794;48.592;9.634;2024-02-26T02:27:39;2.90;;;2.60;;
1601;SDS011;794;48.592;9.634;2024-02-26T02:30:07;3.57;;;3.13;;
1601;SDS011;794;48.592;9.634;2024-02-26T02:32:35;2.73;;;2.53;;
1601;SDS011;794;48.592;9.634;2024-02-26T02:35:06;3.37;;;3.07;;
1601;SDS011;794;48.592;9.634;2024-02-26T02:37:33;2.47;;;1.97;;
1601;SDS011;794;48.592;9.634;2024-02-26T02:40:01;2.93;;;2.60;;
1601;SDS011;794;48.592;9.634;2024-02-26T02:42:30;3.60;;;1.90;;
1601;SDS011;794;48.592;9.634;2024-02-26T02:44:57;2.57;;;1.70;;
1601;SDS011;794;48.592;9.634;2024-02-26T02:47:24;1.67;;;1.57;;
1601;SDS011;794;48.592;9.634;2024-02-26T02:49:50;5.10;;;1.90;;
1601;SDS011;794;48.592;9.634;2024-02-26T02:52:17;3.10;;;2.23;;
1601;SDS011;794;48.592;9.634;2024-02-26T02:54:44;2.30;;;2.10;;
1601;SDS011;794;48.592;9.634;2024-02-26T02:57:13;4.00;;;2.60;;
1601;SDS011;794;48.592;9.634;2024-02-26T02:59:40;2.50;;;2.30;;
1601;SDS011;794;48.592;9.634;2024-02-26T03:02:07;2.90;;;2.70;;
1601;SDS011;794;48.592;9.634;2024-02-26T03:04:34;4.10;;;2.87;;
1601;SDS011;794;48.592;9.634;2024-02-26T03:07:00;2.60;;;2.40;;
1601;SDS011;794;48.592;9.634;2024-02-26T03:09:27;3.37;;;3.07;;
1601;SDS011;794;48.592;9.634;2024-02-26T03:11:54;1.93;;;1.83;;
1601;SDS011;794;48.592;9.634;2024-02-26T03:14:22;3.60;;;2.93;;
1601;SDS011;794;48.592;9.634;2024-02-26T03:16:52;3.70;;;3.40;;
1601;SDS011;794;48.592;9.634;2024-02-26T03:19:20;3.13;;;2.13;;
1601;SDS011;794;48.592;9.634;2024-02-26T03:21:47;2.30;;;2.10;;
1601;SDS011;794;48.592;9.634;2024-02-26T03:24:14;2.57;;;2.37;;
1601;SDS011;794;48.592;9.634;2024-02-26T03:26:41;3.23;;;2.47;;
1601;SDS011;794;48.592;9.634;2024-02-26T03:29:08;3.90;;;2.40;;
1601;SDS011;794;48.592;9.634;2024-02-26T03:31:36;3.23;;;2.93;;
1601;SDS011;794;48.592;9.634;2024-02-26T03:34:03;2.40;;;2.23;;
1601;SDS011;794;48.592;9.634;2024-02-26T03:36:31;2.70;;;2.37;;
1601;SDS011;794;48.592;9.634;2024-02-26T03:38:57;3.13;;;2.80;;
1601;SDS011;794;48.592;9.634;2024-02-26T03:41:24;4.43;;;2.30;;
1601;SDS011;794;48.592;9.634;2024-02-26T03:43:52;2.03;;;1.83;;
1601;SDS011;794;48.592;9.634;2024-02-26T03:46:19;3.83;;;2.50;;
1601;SDS011;794;48.592;9.634;2024-02-26T03:48:47;2.57;;;2.13;;
1601;SDS011;794;48.592;9.634;2024-02-26T03:51:14;3.00;;;2.37;;
1601;SDS011;794;48.592;9.634;2024-02-26T03:53:41;2.60;;;1.93;;
1601;SDS011;794;48.592;9.634;2024-02-26T03:56:08;2.57;;;2.00;;
1601;SDS011;794;48.592;9.634;2024-02-26T03:58:38;1.80;;;1.63;;
1601;SDS011;794;48.592;9.634;2024-02-26T04:01:06;4.83;;;1.80;;
1601;SDS011;794;48.592;9.634;2024-02-26T04:03:34;3.53;;;2.00;;
1601;SDS011;794;48.592;9.634;2024-02-26T04:06:03;2.50;;;2.20;;
1601;SDS011;794;48.592;9.634;2024-02-26T04:08:30;3.03;;;2.63;;
1601;SDS011;794;48.592;9.634;2024-02-26T04:10:57;2.60;;;2.40;;
1601;SDS011;794;48.592;9.634;2024-02-26T04:13:24;3.30;;;3.00;;
1601;SDS011;794;48.592;9.634;2024-02-26T04:15:50;4.47;;;4.10;;
1601;SDS011;794;48.592;9.634;2024-02-26T04:18:17;3.80;;;3.40;;
1601;SDS011;794;48.592;9.634;2024-02-26T04:20:44;4.47;;;3.80;;
1601;SDS011;794;48.592;9.634;2024-02-26T04:23:13;4.47;;;4.00;;
1601;SDS011;794;48.592;9.634;2024-02-26T04:25:40;3.83;;;3.53;;
1601;SDS011;794;48.592;9.634;2024-02-26T04:28:07;3.60;;;3.30;;
1601;SDS011;794;48.592;9.634;2024-02-26T04:30:34;3.33;;;3.03;;
1601;SDS011;794;48.592;9.634;2024-02-26T04:33:01;3.00;;;2.80;;
1601;SDS011;794;48.592;9.634;2024-02-26T04:35:28;3.00;;;2.80;;
1601;SDS011;794;48.592;9.634;2024-02-26T04:37:55;3.67;;;3.37;;
1601;SDS011;794;48.592;9.634;2024-02-26T04:40:24;4.20;;;3.80;;
1601;SDS011;794;48.592;9.634;2024-02-26T04:42:51;2.80;;;2.60;;
1601;SDS011;794;48.592;9.634;2024-02-26T04:45:18;3.87;;;3.40;;
1601;SDS011;794;48.592;9.634;2024-02-26T04:47:45;2.97;;;2.60;;
1601;SDS011;794;48.592;9.634;2024-02-26T04:50:12;3.27;;;3.00;;
1601;SDS011;794;48.592;9.634;2024-02-26T04:52:39;3.00;;;2.80;;
1601;SDS011;794;48.592;9.634;2024-02-26T04:55:07;4.70;;;3.67;;
1601;SDS011;794;48.592;9.634;2024-02-26T04:57:35;4.77;;;3.90;;
1601;SDS011;794;48.592;9.634;2024-02-26T05:00:02;3.10;;;2.90;;
1601;SDS011;794;48.592;9.634;2024-02-26T05:02:30;2.87;;;2.57;;
1601;SDS011;794;48.592;9.634;2024-02-26T05:04:58;3.20;;;2.90;;
1601;SDS011;794;48.592;9.634;2024-02-26T05:07:25;2.73;;;2.53;;
1601;SDS011;794;48.592;9.634;2024-02-26T05:09:52;2.70;;;2.50;;
1601;SDS011;794;48.592;9.634;2024-02-26T05:12:21;2.93;;;2.73;;
1601;SDS011;794;48.592;9.634;2024-02-26T05:14:55;3.90;;;2.80;;
1601;SDS011;794;48.592;9.634;2024-02-26T05:17:21;2.87;;;2.67;;
1601;SDS011;794;48.592;9.634;2024-02-26T05:19:50;2.40;;;2.20;;
1601;SDS011;794;48.592;9.634;2024-02-26T05:22:17;7.20;;;2.40;;
1601;SDS011;794;48.592;9.634;2024-02-26T05:25:15;2.37;;;2.17;;
1601;SDS011;794;48.592;9.634;2024-02-26T05:30:11;4.43;;;2.80;;
1601;SDS011;794;48.592;9.634;2024-02-26T05:32:44;3.00;;;2.60;;
1601;SDS011;794;48.592;9.634;2024-02-26T05:35:11;2.40;;;2.20;;
1601;SDS011;794;48.592;9.634;2024-02-26T05:37:38;2.07;;;1.97;;
1601;SDS011;794;48.592;9.634;2024-02-26T05:40:05;2.13;;;2.00;;
1601;SDS011;794;48.592;9.634;2024-02-26T05:42:33;3.13;;;2.87;;
1601;SDS011;794;48.592;9.634;2024-02-26T05:45:00;1.87;;;1.77;;
1601;SDS011;794;48.592;9.634;2024-02-26T05:47:35;2.93;;;2.63;;
1601;SDS011;794;48.592;9.634;2024-02-26T05:50:12;1.80;;;1.70;;
1601;SDS011;794;48.592;9.634;2024-02-26T05:53:38;2.53;;;1.70;;
1601;SDS011;794;48.592;9.634;2024-02-26T05:56:05;3.23;;;1.60;;
1601;SDS011;794;48.592;9.634;2024-02-26T05:58:33;2.90;;;1.80;;
1601;SDS011;794;48.592;9.634;2024-02-26T06:01:00;3.60;;;1.90;;
1601;SDS011;794;48.592;9.634;2024-02-26T06:03:31;2.00;;;1.80;;
1601;SDS011;794;48.592;9.634;2024-02-26T06:05:59;1.90;;;1.80;;
1601;SDS011;794;48.592;9.634;2024-02-26T06:08:27;2.20;;;2.00;;
1601;SDS011;794;48.592;9.634;2024-02-26T06:10:53;2.97;;;2.17;;
1601;SDS011;794;48.592;9.634;2024-02-26T06:13:20;3.43;;;3.03;;
1601;SDS011;794;48.592;9.634;2024-02-26T06:15:48;4.23;;;2.60;;
1601;SDS011;794;48.592;9.634;2024-02-26T06:18:15;2.20;;;2.00;;
1601;SDS011;794;48.592;9.634;2024-02-26T06:20:43;2.70;;;2.30;;
1601;SDS011;794;48.592;9.634;2024-02-26T06:23:11;1.93;;;1.83;;
1601;SDS011;794;48.592;9.634;2024-02-26T06:25:38;4.40;;;2.10;;
1601;SDS011;794;48.592;9.634;2024-02-26T06:28:06;3.87;;;2.07;;
1601;SDS011;794;48.592;9.634;2024-02-26T06:30:33;3.80;;;3.30;;
1601;SDS011;794;48.592;9.634;2024-02-26T06:33:01;2.80;;;2.30;;
1601;SDS011;794;48.592;9.634;2024-02-26T06:35:28;5.93;;;2.10;;
1601;SDS011;794;48.592;9.634;2024-02-26T06:37:56;1.83;;;1.73;;
1601;SDS011;794;48.592;9.634;2024-02-26T06:40:23;2.00;;;1.67;;
1601;SDS011;794;48.592;9.634;2024-02-26T06:42:51;1.97;;;1.73;;
1601;SDS011;794;48.592;9.634;2024-02-26T06:45:18;1.50;;;1.40;;
1601;SDS011;794;48.592;9.634;2024-02-26T06:47:45;1.67;;;1.57;;
1601;SDS011;794;48.592;9.634;2024-02-26T06:50:12;5.53;;;3.90;;
1601;SDS011;794;48.592;9.634;2024-02-26T06:52:40;11.50;;;3.23;;
1601;SDS011;794;48.592;9.634;2024-02-26T06:55:08;5.90;;;3.17;;
1601;SDS011;794;48.592;9.634;2024-02-26T06:57:35;3.10;;;2.80;;
1601;SDS011;794;48.592;9.634;2024-02-26T07:00:02;2.90;;;2.43;;
1601;SDS011;794;48.592;9.634;2024-02-26T07:02:31;6.07;;;3.10;;
1601;SDS011;794;48.592;9.634;2024-02-26T07:08:58;4.73;;;2.80;;
1601;SDS011;794;48.592;9.634;2024-02-26T07:11:26;2.63;;;2.20;;
1601;SDS011;794;48.592;9.634;2024-02-26T07:13:53;8.00;;;4.17;;
1601;SDS011;794;48.592;9.634;2024-02-26T07:16:20;4.30;;;3.90;;
1601;SDS011;794;48.592;9.634;2024-02-26T07:18:47;6.23;;;4.30;;
1601;SDS011;794;48.592;9.634;2024-02-26T07:21:15;4.43;;;3.80;;
1601;SDS011;794;48.592;9.634;2024-02-26T07:23:41;4.43;;;3.47;;
1601;SDS011;794;48.592;9.634;2024-02-26T07:26:08;6.70;;;4.70;;
1601;SDS011;794;48.592;9.634;2024-02-26T07:28:38;5.13;;;3.63;;
1601;SDS011;794;48.592;9.634;2024-02-26T07:31:05;2.07;;;1.90;;
1601;SDS011;794;48.592;9.634;2024-02-26T07:33:32;3.53;;;2.13;;
1601;SDS011;794;48.592;9.634;2024-02-26T07:35:59;3.17;;;2.40;;
1601;SDS011;794;48.592;9.634;2024-02-26T07:38:26;10.13;;;6.27;;
1601;SDS011;794;48.592;9.634;2024-02-26T07:40:53;10.53;;;6.90;;
1601;SDS011;794;48.592;9.634;2024-02-26T07:43:22;10.67;;;7.40;;
1601;SDS011;794;48.592;9.634;2024-02-26T07:45:50;9.73;;;6.50;;
1601;SDS011;794;48.592;9.634;2024-02-26T07:48:17;9.57;;;8.30;;
1601;SDS011;794;48.592;9.634;2024-02-26T07:50:44;12.07;;;8.20;;
1601;SDS011;794;48.592;9.634;2024-02-26T07:53:11;6.17;;;4.30;;
1601;SDS011;794;48.592;9.634;2024-02-26T07:55:39;3.13;;;2.83;;
1601;SDS011;794;48.592;9.634;2024-02-26T07:58:06;3.80;;;2.60;;
1601;SDS011;794;48.592;9.634;2024-02-26T08:00:33;4.60;;;3.03;;
1601;SDS011;794;48.592;9.634;2024-02-26T08:03:02;2.67;;;2.37;;
1601;SDS011;794;48.592;9.634;2024-02-26T08:05:29;3.97;;;3.57;;
1601;SDS011;794;48.592;9.634;2024-02-26T08:07:56;3.57;;;2.87;;
1601;SDS011;794;48.592;9.634;2024-02-26T08:10:23;6.43;;;3.10;;
1601;SDS011;794;48.592;9.634;2024-02-26T08:12:50;3.40;;;3.10;;
1601;SDS011;794;48.592;9.634;2024-02-26T08:15:17;11.73;;;7.00;;
1601;SDS011;794;48.592;9.634;2024-02-26T08:17:45;8.53;;;6.60;;
1601;SDS011;794;48.592;9.634;2024-02-26T08:20:14;9.23;;;8.00;;
1601;SDS011;794;48.592;9.634;2024-02-26T08:22:41;9.70;;;7.23;;
1601;SDS011;794;48.592;9.634;2024-02-26T08:25:09;9.20;;;7.60;;
1601;SDS011;794;48.592;9.634;2024-02-26T08:27:35;9.90;;;7.10;;
1601;SDS011;794;48.592;9.634;2024-02-26T08:30:03;7.80;;;6.50;;
1601;SDS011;794;48.592;9.634;2024-02-26T08:32:31;7.33;;;5.57;;
1601;SDS011;794;48.592;9.634;2024-02-26T08:34:58;8.70;;;5.90;;
1601;SDS011;794;48.592;9.634;2024-02-26T08:37:26;9.40;;;6.90;;
1601;SDS011;794;48.592;9.634;2024-02-26T08:39:53;4.77;;;3.77;;
1601;SDS011;794;48.592;9.634;2024-02-26T08:42:20;4.80;;;4.07;;
1601;SDS011;794;48.592;9.634;2024-02-26T08:44:49;9.30;;;4.67;;
1601;SDS011;794;48.592;9.634;2024-02-26T08:47:16;4.50;;;2.70;;
1601;SDS011;794;48.592;9.634;2024-02-26T08:49:44;4.00;;;3.60;;
1601;SDS011;794;48.592;9.634;2024-02-26T08:52:11;7.03;;;3.33;;
1601;SDS011;794;48.592;9.634;2024-02-26T08:54:40;5.30;;;3.63;;
1601;SDS011;794;48.592;9.634;2024-02-26T08:57:07;6.90;;;3.73;;
1601;SDS011;794;48.592;9.634;2024-02-26T08:59:34;3.67;;;3.37;;
1601;SDS011;794;48.592;9.634;2024-02-26T09:02:02;4.10;;;3.70;;
1601;SDS011;794;48.592;9.634;2024-02-26T09:04:29;5.80;;;4.90;;
1601;SDS011;794;48.592;9.634;2024-02-26T09:06:56;7.60;;;4.97;;
1601;SDS011;794;48.592;9.634;2024-02-26T09:09:23;6.50;;;4.40;;
1601;SDS011;794;48.592;9.634;2024-02-26T09:11:52;8.97;;;5.63;;
1601;SDS011;794;48.592;9.634;2024-02-26T09:14:20;7.70;;;5.80;;
1601;SDS011;794;48.592;9.634;2024-02-26T09:16:47;6.63;;;5.37;;
1601;SDS011;794;48.592;9.634;2024-02-26T09:19:15;6.27;;;3.90;;
1601;SDS011;794;48.592;9.634;2024-02-26T09:21:42;3.97;;;3.57;;
1601;SDS011;794;48.592;9.634;2024-02-26T09:24:09;6.60;;;4.47;;
1601;SDS011;794;48.592;9.634;2024-02-26T09:26:37;2.57;;;2.37;;
1601;SDS011;794;48.592;9.634;2024-02-26T09:29:05;3.60;;;2.50;;
1601;SDS011;794;48.592;9.634;2024-02-26T09:31:33;1.90;;;1.73;;
1601;SDS011;794;48.592;9.634;2024-02-26T09:34:00;1.73;;;1.23;;
1601;SDS011;794;48.592;9.634;2024-02-26T09:36:27;1.53;;;1.43;;
1601;SDS011;794;48.592;9.634;2024-02-26T09:38:54;1.40;;;1.27;;
1601;SDS011;794;48.592;9.634;2024-02-26T09:41:22;3.40;;;3.10;;
1601;SDS011;794;48.592;9.634;2024-02-26T09:43:49;2.40;;;2.20;;
1601;SDS011;794;48.592;9.634;2024-02-26T09:46:22;2.30;;;1.77;;
1601;SDS011;794;48.592;9.634;2024-02-26T09:48:49;2.80;;;2.27;;
1601;SDS011;794;48.592;9.634;2024-02-26T09:51:16;2.00;;;1.43;;
1601;SDS011;794;48.592;9.634;2024-02-26T09:53:44;1.63;;;1.20;;
1601;SDS011;794;48.592;9.634;2024-02-26T09:56:11;2.10;;;1.10;;
1601;SDS011;794;48.592;9.634;2024-02-26T09:58:39;1.07;;;0.97;;
1601;SDS011;794;48.592;9.634;2024-02-26T10:01:09;1.23;;;1.13;;
1601;SDS011;794;48.592;9.634;2024-02-26T10:03:41;1.03;;;1.03;;
1601;SDS011;794;48.592;9.634;2024-02-26T10:06:09;1.40;;;1.00;;
1601;SDS011;794;48.592;9.634;2024-02-26T10:08:37;1.00;;;0.90;;
1601;SDS011;794;48.592;9.634;2024-02-26T10:11:04;1.53;;;1.30;;
1601;SDS011;794;48.592;9.634;2024-02-26T10:13:32;2.30;;;2.00;;
1601;SDS011;794;48.592;9.634;2024-02-26T10:15:58;3.23;;;2.17;;
1601;SDS011;794;48.592;9.634;2024-02-26T10:18:28;2.63;;;2.43;;
1601;SDS011;794;48.592;9.634;2024-02-26T10:21:15;1.83;;;1.20;;
1601;SDS011;794;48.592;9.634;2024-02-26T10:23:43;5.50;;;2.10;;
1601;SDS011;794;48.592;9.634;2024-02-26T10:26:10;2.20;;;1.67;;
1601;SDS011;794;48.592;9.634;2024-02-26T10:28:39;3.87;;;1.50;;
1601;SDS011;794;48.592;9.634;2024-02-26T10:31:06;2.00;;;1.33;;
1601;SDS011;794;48.592;9.634;2024-02-26T10:33:33;1.03;;;0.90;;
1601;SDS011;794;48.592;9.634;2024-02-26T10:36:03;2.90;;;1.10;;
1601;SDS011;794;48.592;9.634;2024-02-26T10:38:31;1.23;;;1.00;;
1601;SDS011;794;48.592;9.634;2024-02-26T10:40:59;0.80;;;0.80;;
1601;SDS011;794;48.592;9.634;2024-02-26T10:43:26;1.00;;;0.80;;
1601;SDS011;794;48.592;9.634;2024-02-26T10:45:54;0.80;;;0.70;;
1601;SDS011;794;48.592;9.634;2024-02-26T10:48:27;1.20;;;0.80;;
1601;SDS011;794;48.592;9.634;2024-02-26T10:50:54;1.30;;;1.20;;
1601;SDS011;794;48.592;9.634;2024-02-26T10:53:23;2.50;;;0.80;;
1601;SDS011;794;48.592;9.634;2024-02-26T10:55:55;1.53;;;1.00;;
1601;SDS011;794;48.592;9.634;2024-02-26T10:58:27;1.50;;;1.00;;
1601;SDS011;794;48.592;9.634;2024-02-26T11:00:56;1.00;;;0.90;;
1601;SDS011;794;48.592;9.634;2024-02-26T11:03:24;0.80;;;0.70;;
1601;SDS011;794;48.592;9.634;2024-02-26T11:05:51;2.20;;;0.93;;
1601;SDS011;794;48.592;9.634;2024-02-26T11:08:19;1.10;;;0.97;;
1601;SDS011;794;48.592;9.634;2024-02-26T11:10:48;1.10;;;0.80;;
1601;SDS011;794;48.592;9.634;2024-02-26T11:13:19;2.30;;;0.73;;
1601;SDS011;794;48.592;9.634;2024-02-26T11:15:50;0.80;;;0.80;;
1601;SDS011;794;48.592;9.634;2024-02-26T11:18:19;2.30;;;1.00;;
1601;SDS011;794;48.592;9.634;2024-02-26T11:20:48;0.90;;;0.70;;
1601;SDS011;794;48.592;9.634;2024-02-26T11:23:16;1.93;;;0.77;;
1601;SDS011;794;48.592;9.634;2024-02-26T11:25:43;0.97;;;0.67;;
1601;SDS011;794;48.592;9.634;2024-02-26T11:28:13;1.50;;;1.33;;
1601;SDS011;794;48.592;9.634;2024-02-26T11:30:44;2.97;;;2.23;;
1601;SDS011;794;48.592;9.634;2024-02-26T11:33:14;2.30;;;0.97;;
1601;SDS011;794;48.592;9.634;2024-02-26T11:35:41;4.50;;;2.50;;
1601;SDS011;794;48.592;9.634;2024-02-26T11:38:09;1.73;;;1.17;;
1601;SDS011;794;48.592;9.634;2024-02-26T11:40:45;1.37;;;1.20;;
1601;SDS011;794;48.592;9.634;2024-02-26T11:43:15;3.47;;;1.80;;
1601;SDS011;794;48.592;9.634;2024-02-26T11:45:48;1.73;;;1.47;;
1601;SDS011;794;48.592;9.634;2024-02-26T11:48:20;6.77;;;4.60;;
1601;SDS011;794;48.592;9.634;2024-02-26T11:50:49;9.90;;;6.90;;
1601;SDS011;794;48.592;9.634;2024-02-26T11:53:20;1.63;;;1.47;;
1601;SDS011;794;48.592;9.634;2024-02-26T11:58:47;1.70;;;1.50;;
1601;SDS011;794;48.592;9.634;2024-02-26T12:04:05;2.33;;;1.70;;
1601;SDS011;794;48.592;9.634;2024-02-26T12:06:40;1.37;;;1.00;;
1601;SDS011;794;48.592;9.634;2024-02-26T12:09:08;1.30;;;0.90;;
1601;SDS011;794;48.592;9.634;2024-02-26T12:11:37;3.50;;;3.03;;
1601;SDS011;794;48.592;9.634;2024-02-26T12:14:07;1.37;;;1.00;;
1601;SDS011;794;48.592;9.634;2024-02-26T12:16:35;6.03;;;3.90;;
1601;SDS011;794;48.592;9.634;2024-02-26T12:19:03;1.47;;;1.00;;
1601;SDS011;794;48.592;9.634;2024-02-26T12:21:33;10.00;;;6.67;;
1601;SDS011;794;48.592;9.634;2024-02-26T12:24:10;3.90;;;3.30;;
1601;SDS011;794;48.592;9.634;2024-02-26T12:26:38;4.40;;;2.87;;
1601;SDS011;794;48.592;9.634;2024-02-26T12:29:07;1.20;;;1.10;;
1601;SDS011;794;48.592;9.634;2024-02-26T12:31:34;1.70;;;1.47;;
1601;SDS011;794;48.592;9.634;2024-02-26T12:34:03;2.23;;;1.73;;
1601;SDS011;794;48.592;9.634;2024-02-26T12:36:31;3.50;;;2.17;;
1601;SDS011;794;48.592;9.634;2024-02-26T12:38:59;2.10;;;1.67;;
1601;SDS011;794;48.592;9.634;2024-02-26T12:41:27;2.73;;;1.53;;
1601;SDS011;794;48.592;9.634;2024-02-26T12:43:55;5.40;;;2.90;;
1601;SDS011;794;48.592;9.634;2024-02-26T12:46:24;1.33;;;0.90;;
1601;SDS011;794;48.592;9.634;2024-02-26T12:48:51;1.30;;;1.00;;
1601;SDS011;794;48.592;9.634;2024-02-26T12:51:22;0.90;;;0.90;;
1601;SDS011;794;48.592;9.634;2024-02-26T12:53:50;1.53;;;0.77;;
1601;SDS011;794;48.592;9.634;2024-02-26T12:56:18;1.23;;;1.07;;
1601;SDS011;794;48.592;9.634;2024-02-26T12:58:45;1.60;;;1.50;;
1601;SDS011;794;48.592;9.634;2024-02-26T13:01:14;1.40;;;1.30;;
1601;SDS011;794;48.592;9.634;2024-02-26T13:03:43;1.37;;;1.27;;
1601;SDS011;794;48.592;9.634;2024-02-26T13:06:10;1.37;;;1.27;;
1601;SDS011;794;48.592;9.634;2024-02-26T13:08:38;1.97;;;1.40;;
1601;SDS011;794;48.592;9.634;2024-02-26T13:11:05;3.40;;;1.90;;
1601;SDS011;794;48.592;9.634;2024-02-26T13:13:33;2.20;;;1.70;;
1601;SDS011;794;48.592;9.634;2024-02-26T13:16:03;1.73;;;1.17;;
1601;SDS011;794;48.592;9.634;2024-02-26T13:18:31;2.40;;;2.20;;
1601;SDS011;794;48.592;9.634;2024-02-26T13:21:09;1.80;;;1.70;;
1601;SDS011;794;48.592;9.634;2024-02-26T13:23:37;2.10;;;1.90;;
1601;SDS011;794;48.592;9.634;2024-02-26T13:26:05;4.93;;;1.73;;
1601;SDS011;794;48.592;9.634;2024-02-26T13:28:33;7.80;;;2.00;;
1601;SDS011;794;48.592;9.634;2024-02-26T13:31:00;0.80;;;0.77;;
1601;SDS011;794;48.592;9.634;2024-02-26T13:33:29;1.80;;;1.03;;
1601;SDS011;794;48.592;9.634;2024-02-26T13:35:57;0.60;;;0.60;;
1601;SDS011;794;48.592;9.634;2024-02-26T13:38:26;1.10;;;0.83;;
1601;SDS011;794;48.592;9.634;2024-02-26T13:40:54;3.37;;;1.10;;
1601;SDS011;794;48.592;9.634;2024-02-26T13:43:22;2.10;;;0.80;;
1601;SDS011;794;48.592;9.634;2024-02-26T13:45:48;2.03;;;0.80;;
1601;SDS011;794;48.592;9.634;2024-02-26T13:48:16;1.07;;;0.70;;
1601;SDS011;794;48.592;9.634;2024-02-26T13:50:43;3.33;;;2.40;;
1601;SDS011;794;48.592;9.634;2024-02-26T13:53:11;1.07;;;0.63;;
1601;SDS011;794;48.592;9.634;2024-02-26T13:55:40;0.70;;;0.70;;
1601;SDS011;794;48.592;9.634;2024-02-26T13:58:08;0.80;;;0.80;;
1601;SDS011;794;48.592;9.634;2024-02-26T14:00:39;0.80;;;0.77;;
1601;SDS011;794;48.592;9.634;2024-02-26T14:03:06;0.70;;;0.67;;
1601;SDS011;794;48.592;9.634;2024-02-26T14:05:34;0.83;;;0.70;;
1601;SDS011;794;48.592;9.634;2024-02-26T14:08:01;1.73;;;1.10;;
1601;SDS011;794;48.592;9.634;2024-02-26T14:10:28;1.57;;;1.13;;
1601;SDS011;794;48.592;9.634;2024-02-26T14:12:58;1.10;;;1.00;;
1601;SDS011;794;48.592;9.634;2024-02-26T14:15:25;1.00;;;0.90;;
1601;SDS011;794;48.592;9.634;2024-02-26T14:17:53;1.37;;;1.27;;
1601;SDS011;794;48.592;9.634;2024-02-26T14:20:21;2.10;;;1.30;;
1601;SDS011;794;48.592;9.634;2024-02-26T14:22:48;1.83;;;1.13;;
1601;SDS011;794;48.592;9.634;2024-02-26T14:25:16;4.87;;;1.13;;
1601;SDS011;794;48.592;9.634;2024-02-26T14:27:43;1.30;;;1.20;;
1601;SDS011;794;48.592;9.634;2024-02-26T14:30:12;1.30;;;1.20;;
1601;SDS011;794;48.592;9.634;2024-02-26T14:32:40;1.00;;;0.90;;
1601;SDS011;794;48.592;9.634;2024-02-26T14:35:07;0.90;;;0.83;;
1601;SDS011;794;48.592;9.634;2024-02-26T14:37:35;2.50;;;0.90;;
1601;SDS011;794;48.592;9.634;2024-02-26T14:40:05;2.10;;;1.13;;
1601;SDS011;794;48.592;9.634;2024-02-26T14:42:35;1.03;;;0.93;;
1601;SDS011;794;48.592;9.634;2024-02-26T14:45:02;1.20;;;1.00;;
1601;SDS011;794;48.592;9.634;2024-02-26T14:47:33;1.63;;;1.00;;
1601;SDS011;794;48.592;9.634;2024-02-26T14:50:00;1.13;;;1.03;;
1601;SDS011;794;48.592;9.634;2024-02-26T14:52:27;1.00;;;1.00;;
1601;SDS011;794;48.592;9.634;2024-02-26T14:54:54;1.87;;;1.77;;
1601;SDS011;794;48.592;9.634;2024-02-26T14:57:22;1.60;;;1.50;;
1601;SDS011;794;48.592;9.634;2024-02-26T14:59:49;1.83;;;1.40;;
1601;SDS011;794;48.592;9.634;2024-02-26T15:02:16;1.73;;;1.10;;
1601;SDS011;794;48.592;9.634;2024-02-26T15:04:45;2.60;;;1.40;;
1601;SDS011;794;48.592;9.634;2024-02-26T15:07:13;2.60;;;2.10;;
1601;SDS011;794;48.592;9.634;2024-02-26T15:09:40;1.43;;;1.33;;
1601;SDS011;794;48.592;9.634;2024-02-26T15:12:07;1.20;;;1.10;;
1601;SDS011;794;48.592;9.634;2024-02-26T15:14:35;1.80;;;1.30;;
1601;SDS011;794;48.592;9.634;2024-02-26T15:17:02;2.90;;;1.70;;
1601;SDS011;794;48.592;9.634;2024-02-26T15:19:29;3.70;;;1.97;;
1601;SDS011;794;48.592;9.634;2024-02-26T15:21:58;1.73;;;1.43;;
1601;SDS011;794;48.592;9.634;2024-02-26T15:24:25;1.70;;;1.60;;
1601;SDS011;794;48.592;9.634;2024-02-26T15:26:52;3.03;;;2.83;;
1601;SDS011;794;48.592;9.634;2024-02-26T15:29:19;2.60;;;2.00;;
1601;SDS011;794;48.592;9.634;2024-02-26T15:31:46;3.17;;;2.13;;
1601;SDS011;794;48.592;9.634;2024-02-26T15:34:14;2.40;;;1.60;;
1601;SDS011;794;48.592;9.634;2024-02-26T15:36:41;2.20;;;1.80;;
1601;SDS011;794;48.592;9.634;2024-02-26T15:39:09;2.40;;;1.77;;
1601;SDS011;794;48.592;9.634;2024-02-26T15:41:36;3.70;;;3.27;;
1601;SDS011;794;48.592;9.634;2024-02-26T15:44:03;6.60;;;4.10;;
1601;SDS011;794;48.592;9.634;2024-02-26T15:46:31;3.33;;;2.23;;